Time;durP1;ratioP1;P1;durP2;ratioP2;P2;SDS_P1;SDS_P2;PMS_P1;PMS_P2;Temp;Humidity;BMP_temperature;BMP_pressure;BME280_temperature;BME280_humidity;BME280_pressure;Samples;Min_cycle;Max_cycle;Signal;HPM_P1;HPM_P2
2023/05/17 06:31:28;;;;;;;8.57;2.38;;;9.60;99.90;;;;;;6960537;23;20540;-74
2023/05/17 06:34:31;;;;;;;6.80;2.00;;;9.70;99.90;;;;;;6225830;28;20399;-74
2023/05/17 06:37:33;;;;;;;8.57;2.40;;;9.50;99.90;;;;;;6225961;28;20049;-73
2023/05/17 06:40:34;;;;;;;6.80;2.00;;;9.70;99.90;;;;;;6225608;28;20046;-74
2023/05/17 06:43:36;;;;;;;6.80;1.60;;;9.80;99.40;;;;;;6221974;28;20046;-72
2023/05/17 06:46:40;;;;;;;7.43;1.75;;;10.00;98.90;;;;;;6202820;28;20162;-72
2023/05/17 06:49:41;;;;;;;9.05;2.65;;;10.00;98.90;;;;;;6202279;28;20078;-73
2023/05/17 06:52:43;;;;;;;8.15;1.98;;;10.00;99.00;;;;;;6201106;28;20504;-74
2023/05/17 06:55:45;;;;;;;7.95;2.50;;;10.10;98.70;;;;;;6204781;28;20054;-73
2023/05/17 06:58:47;;;;;;;9.15;3.28;;;10.10;99.10;;;;;;6201243;28;20046;-74
2023/05/17 07:01:50;;;;;;;6.28;2.60;;;10.10;99.40;;;;;;6204807;28;20484;-73
2023/05/17 07:04:52;;;;;;;10.02;2.28;;;10.30;99.70;;;;;;6216515;28;20053;-76
2023/05/17 07:07:54;;;;;;;8.95;2.30;;;10.40;98.50;;;;;;6224873;28;20046;-73
2023/05/17 07:10:56;;;;;;;21.70;6.63;;;10.40;98.80;;;;;;6225211;28;20451;-73
2023/05/17 07:13:58;;;;;;;9.38;2.50;;;10.20;98.80;;;;;;6220129;28;20058;-74
2023/05/17 07:17:01;;;;;;;8.68;2.47;;;10.40;98.90;;;;;;6215056;28;20049;-74
2023/05/17 07:20:04;;;;;;;7.47;2.30;;;10.50;98.40;;;;;;6224934;28;20050;-75
2023/05/17 07:23:06;;;;;;;7.20;2.55;;;10.40;99.50;;;;;;6222195;28;20049;-73
2023/05/17 07:26:08;;;;;;;6.65;2.38;;;10.50;99.50;;;;;;6200331;28;20056;-73
2023/05/17 07:29:10;;;;;;;9.63;2.30;;;10.60;98.90;;;;;;6200343;28;20515;-74
2023/05/17 07:32:14;;;;;;;8.32;2.83;;;10.70;98.70;;;;;;6199941;28;20057;-74
2023/05/17 07:35:16;;;;;;;7.93;2.40;;;10.80;98.30;;;;;;6201071;28;20054;-74
2023/05/17 07:38:18;;;;;;;8.75;2.42;;;10.90;98.70;;;;;;6200167;28;20055;-73
2023/05/17 07:41:22;;;;;;;6.00;2.30;;;10.80;98.60;;;;;;6200035;28;20384;-73
2023/05/17 07:44:23;;;;;;;9.02;2.42;;;11.00;98.50;;;;;;6210476;28;20053;-74
2023/05/17 07:47:27;;;;;;;8.68;2.60;;;11.10;97.50;;;;;;6224284;28;20053;-74
2023/05/17 07:50:29;;;;;;;8.82;2.63;;;11.20;97.70;;;;;;6224153;28;20057;-74
2023/05/17 07:53:31;;;;;;;7.07;2.38;;;11.20;97.50;;;;;;6218810;28;20647;-74
2023/05/17 07:56:33;;;;;;;6.65;2.83;;;11.10;98.00;;;;;;6200819;28;20058;-73
2023/05/17 07:59:35;;;;;;;7.13;2.38;;;11.20;97.40;;;;;;6199534;28;20046;-74
2023/05/17 08:02:38;;;;;;;8.02;2.63;;;11.20;97.60;;;;;;6199417;28;20050;-74
2023/05/17 08:05:40;;;;;;;5.72;2.47;;;11.30;97.30;;;;;;6200013;28;20042;-74
2023/05/17 08:08:43;;;;;;;7.63;2.63;;;11.30;97.00;;;;;;6222989;28;20050;-73
2023/05/17 08:11:45;;;;;;;7.95;2.47;;;11.50;96.50;;;;;;6223945;28;20046;-74
2023/05/17 08:14:47;;;;;;;8.38;2.33;;;11.30;97.30;;;;;;6223610;28;20046;-73
2023/05/17 08:17:50;;;;;;;7.10;2.53;;;11.40;97.40;;;;;;6222147;28;20042;-74
2023/05/17 08:20:52;;;;;;;7.93;2.40;;;11.60;97.60;;;;;;6223155;28;20042;-74
2023/05/17 08:23:54;;;;;;;7.95;2.75;;;11.60;97.10;;;;;;6223605;28;20060;-73
2023/05/17 08:26:56;;;;;;;10.48;2.85;;;11.70;96.60;;;;;;6222070;28;20056;-76
2023/05/17 08:29:58;;;;;;;6.95;2.70;;;11.90;96.80;;;;;;6223810;28;20057;-74
2023/05/17 08:33:01;;;;;;;6.32;2.50;;;11.80;96.50;;;;;;6227038;28;20054;-74
2023/05/17 08:36:06;;;;;;;8.23;2.70;;;11.80;97.00;;;;;;6224254;28;20062;-74
2023/05/17 08:39:08;;;;;;;8.85;2.90;;;11.70;95.60;;;;;;6231979;28;20129;-74
2023/05/17 08:42:10;;;;;;;7.53;2.60;;;11.90;96.40;;;;;;6229564;28;20057;-75
2023/05/17 08:45:13;;;;;;;8.25;2.40;;;12.00;95.80;;;;;;6218166;28;20042;-73
2023/05/17 08:48:18;;;;;;;9.88;3.03;;;12.10;95.10;;;;;;6204613;28;20050;-74
2023/05/17 08:51:21;;;;;;;9.52;2.90;;;12.10;95.00;;;;;;6204303;28;20085;-73
2023/05/17 08:54:23;;;;;;;6.82;2.38;;;12.20;95.60;;;;;;6213770;28;20052;-72
2023/05/17 08:57:28;;;;;;;9.23;2.95;;;12.40;95.40;;;;;;6228328;28;20042;-74
2023/05/17 09:00:32;;;;;;;5.93;2.83;;;12.50;95.00;;;;;;6227513;28;20049;-74
2023/05/17 09:03:36;;;;;;;8.43;2.80;;;12.60;94.40;;;;;;6206320;28;20547;-74
2023/05/17 09:06:38;;;;;;;9.85;3.03;;;12.60;94.90;;;;;;6203565;28;20053;-74
2023/05/17 09:09:40;;;;;;;7.80;3.15;;;12.50;95.30;;;;;;6207412;28;20050;-74
2023/05/17 09:12:43;;;;;;;8.35;3.30;;;12.40;95.60;;;;;;6203515;28;20072;-73
2023/05/17 09:15:47;;;;;;;8.13;2.90;;;12.60;94.30;;;;;;6217225;28;20050;-72
2023/05/17 09:18:58;;;;;;;7.18;3.28;;;12.60;95.00;;;;;;6206283;28;20050;-73
2023/05/17 09:22:01;;;;;;;7.63;3.05;;;12.70;94.20;;;;;;6226920;28;20046;-72
2023/05/17 09:25:03;;;;;;;7.55;3.10;;;12.60;94.70;;;;;;6228558;28;20054;-73
2023/05/17 09:28:07;;;;;;;11.00;3.47;;;12.50;94.70;;;;;;6227842;28;20074;-74
2023/05/17 09:31:12;;;;;;;7.47;2.85;;;12.40;93.90;;;;;;6227495;28;20061;-74
2023/05/17 09:34:18;;;;;;;9.07;3.20;;;12.60;94.70;;;;;;6210698;28;20056;-74
2023/05/17 09:37:20;;;;;;;6.93;3.20;;;12.70;94.10;;;;;;6203036;28;20055;-75
2023/05/17 09:40:24;;;;;;;8.48;3.25;;;12.80;93.30;;;;;;6203617;28;20050;-73
2023/05/17 09:43:26;;;;;;;8.57;3.13;;;12.90;93.30;;;;;;6203584;28;20399;-73
2023/05/17 09:46:33;;;;;;;6.97;2.88;;;13.00;92.10;;;;;;6203437;28;20054;-73
2023/05/17 09:49:36;;;;;;;6.65;2.67;;;12.90;92.90;;;;;;6204056;28;20050;-74
2023/05/17 09:52:38;;;;;;;6.82;3.53;;;13.20;92.30;;;;;;6203540;28;20052;-74
2023/05/17 09:55:40;;;;;;;6.72;3.15;;;13.20;92.30;;;;;;6203001;28;20144;-74
2023/05/17 09:58:43;;;;;;;8.13;3.58;;;13.30;92.70;;;;;;6202706;28;20054;-74
2023/05/17 10:01:45;;;;;;;8.57;3.40;;;13.40;92.50;;;;;;6203002;28;20050;-74
2023/05/17 10:04:50;;;;;;;8.43;3.42;;;13.30;92.50;;;;;;6201110;28;20054;-75
2023/05/17 10:07:55;;;;;;;8.38;3.10;;;13.40;91.80;;;;;;6201011;28;20476;-76
2023/05/17 10:11:03;;;;;;;6.28;3.15;;;13.20;93.00;;;;;;6203370;28;20046;-75
2023/05/17 10:14:12;;;;;;;19.65;10.13;;;13.40;92.20;;;;;;6213146;28;20148;-75
2023/05/17 10:17:15;;;;;;;7.63;3.42;;;13.20;93.00;;;;;;6223032;28;20050;-75
2023/05/17 10:20:19;;;;;;;22.17;9.27;;;13.30;91.80;;;;;;6225489;28;20046;-75
2023/05/17 10:23:21;;;;;;;8.65;4.10;;;13.40;92.50;;;;;;6224522;28;20057;-74
2023/05/17 10:26:24;;;;;;;7.40;3.20;;;13.60;92.40;;;;;;6225251;28;20042;-76
2023/05/17 10:29:26;;;;;;;6.33;2.90;;;13.60;91.40;;;;;;6215908;28;20519;-76
2023/05/17 10:32:29;;;;;;;5.95;2.83;;;13.70;91.20;;;;;;6197300;28;20305;-75
2023/05/17 10:35:34;;;;;;;6.13;3.17;;;13.80;90.40;;;;;;6197553;28;20497;-75
2023/05/17 10:38:36;;;;;;;7.10;2.67;;;13.70;90.80;;;;;;6197114;28;20423;-76
2023/05/17 10:41:43;;;;;;;7.50;3.47;;;13.80;91.20;;;;;;6196887;28;20053;-74
2023/05/17 10:44:45;;;;;;;6.95;3.13;;;13.80;90.70;;;;;;6197370;28;20101;-74
2023/05/17 10:47:47;;;;;;;6.40;3.00;;;13.80;91.80;;;;;;6197428;28;20050;-74
2023/05/17 10:50:53;;;;;;;9.32;2.90;;;13.90;89.40;;;;;;6197807;28;20058;-73
2023/05/17 10:54:11;;;;;;;6.28;2.83;;;13.70;90.70;;;;;;6196336;28;20057;-74
2023/05/17 10:57:34;;;;;;;9.52;3.17;;;13.80;90.70;;;;;;6198871;28;20078;-75
2023/05/17 11:00:41;;;;;;;8.55;2.97;;;13.90;90.20;;;;;;6199811;28;20125;-74
2023/05/17 11:03:43;;;;;;;7.00;2.83;;;14.00;90.70;;;;;;6217269;28;20053;-74
2023/05/17 11:06:46;;;;;;;6.13;2.75;;;14.20;89.90;;;;;;6201662;28;20058;-74
2023/05/17 11:09:52;;;;;;;6.70;2.70;;;14.00;88.00;;;;;;6199191;28;20522;-74
2023/05/17 11:12:56;;;;;;;8.35;3.10;;;14.10;88.10;;;;;;6197467;28;20112;-74
2023/05/17 11:16:05;;;;;;;6.10;2.60;;;13.90;88.30;;;;;;6197400;28;20054;-74
2023/05/17 11:19:09;;;;;;;6.65;2.72;;;14.00;88.30;;;;;;6207148;28;20053;-74
2023/05/17 11:22:15;;;;;;;;;;;14.10;86.50;;;;;;6229977;28;20058;-73
2023/05/17 11:25:19;;;;;;;7.80;3.00;;;14.40;86.60;;;;;;6239701;28;19925;-75
2023/05/17 11:28:21;;;;;;;8.48;3.03;;;14.40;85.60;;;;;;6227583;28;20050;-73
2023/05/17 11:31:30;;;;;;;7.73;3.00;;;14.20;85.30;;;;;;6185163;28;1146514;-75
2023/05/17 11:34:33;;;;;;;7.03;2.83;;;14.10;83.50;;;;;;6234978;28;20049;-75
2023/05/17 11:37:37;;;;;;;6.10;3.05;;;14.30;83.70;;;;;;6233320;28;20063;-75
2023/05/17 11:40:39;;;;;;;7.45;2.60;;;14.50;83.80;;;;;;6235708;28;20042;-75
2023/05/17 11:43:47;;;;;;;6.80;2.88;;;14.50;84.30;;;;;;6237336;28;20058;-76
2023/05/17 11:46:50;;;;;;;10.10;3.45;;;14.40;83.20;;;;;;6232483;28;20042;-76
2023/05/17 11:49:54;;;;;;;7.68;2.80;;;14.30;84.50;;;;;;6225316;28;20050;-76
2023/05/17 11:52:59;;;;;;;8.65;3.55;;;14.50;84.00;;;;;;6222861;28;20056;-75
2023/05/17 11:56:04;;;;;;;8.60;3.50;;;14.60;84.50;;;;;;6212511;28;20502;-77
2023/05/17 11:59:06;;;;;;;19.55;7.93;;;14.80;82.60;;;;;;6203472;28;20511;-76
2023/05/17 12:02:08;;;;;;;7.25;3.38;;;14.80;82.60;;;;;;6225615;28;20052;-75
2023/05/17 12:05:09;;;;;;;8.60;3.50;;;15.00;82.30;;;;;;6234047;28;20113;-77
2023/05/17 12:08:15;;;;;;;7.32;3.40;;;15.00;81.60;;;;;;6235867;28;20049;-75
2023/05/17 12:11:18;;;;;;;9.80;3.40;;;14.80;82.50;;;;;;6232559;28;20491;-76
2023/05/17 12:14:20;;;;;;;9.52;3.65;;;15.00;82.40;;;;;;6225551;28;20054;-75
2023/05/17 12:17:30;;;;;;;8.85;3.20;;;14.60;82.50;;;;;;6207539;28;20056;-74
2023/05/17 12:20:34;;;;;;;8.80;3.55;;;14.50;83.50;;;;;;6215237;28;20487;-74
2023/05/17 12:23:39;;;;;;;6.72;2.90;;;14.60;82.50;;;;;;6224411;28;20060;-76
2023/05/17 12:26:47;;;;;;;8.65;3.22;;;14.60;82.20;;;;;;6239841;28;20058;-74
2023/05/17 12:29:50;;;;;;;8.23;3.58;;;14.70;82.90;;;;;;6240334;28;20060;-77
2023/05/17 12:32:52;;;;;;;8.20;3.20;;;14.90;81.30;;;;;;6223474;28;20060;-76
2023/05/17 12:35:54;;;;;;;10.88;3.60;;;14.90;79.80;;;;;;6210885;28;20061;-77
2023/05/17 12:38:58;;;;;;;6.40;3.13;;;14.90;78.90;;;;;;6204481;28;20144;-74
2023/05/17 12:42:00;;;;;;;;;;;15.20;78.80;;;;;;6203732;28;20128;-75
2023/05/17 12:45:03;;;;;;;7.93;3.22;;;15.20;78.40;;;;;;6222174;28;19925;-76
2023/05/17 12:48:05;;;;;;;7.18;3.33;;;15.50;79.50;;;;;;6233187;28;20053;-76
2023/05/17 12:51:09;;;;;;;6.43;3.00;;;15.50;79.70;;;;;;6231050;28;20650;-76
2023/05/17 12:54:15;;;;;;;8.15;3.00;;;15.50;79.20;;;;;;6222322;28;20053;-74
2023/05/17 12:57:18;;;;;;;8.02;3.30;;;15.30;81.20;;;;;;6221213;28;20056;-75
2023/05/17 13:00:21;;;;;;;8.88;3.20;;;15.10;80.00;;;;;;6218424;28;20161;-74
2023/05/17 13:03:23;;;;;;;10.98;3.13;;;15.10;80.30;;;;;;6220011;28;20050;-77
2023/05/17 13:06:25;;;;;;;9.77;3.42;;;14.90;81.00;;;;;;6219908;28;20046;-75
2023/05/17 13:09:31;;;;;;;6.07;2.95;;;14.90;80.70;;;;;;6197120;28;20404;-76
2023/05/17 13:12:37;;;;;;;6.88;2.65;;;14.90;80.10;;;;;;6196133;28;20446;-74
2023/05/17 13:15:39;;;;;;;8.80;3.00;;;14.90;79.70;;;;;;6196262;28;20050;-75
2023/05/17 13:18:51;;;;;;;7.93;3.17;;;15.10;78.50;;;;;;6198484;28;20393;-76
2023/05/17 13:21:55;;;;;;;8.25;3.30;;;15.10;81.60;;;;;;6222348;28;20057;-74
2023/05/17 13:24:58;;;;;;;7.38;2.95;;;15.10;80.00;;;;;;6224851;28;20128;-75
2023/05/17 13:28:01;;;;;;;6.93;3.10;;;15.20;77.50;;;;;;6224499;28;20053;-74
2023/05/17 13:31:03;;;;;;;6.95;3.15;;;15.50;79.00;;;;;;6224156;28;20388;-75
2023/05/17 13:34:04;;;;;;;10.15;3.20;;;15.80;77.70;;;;;;6223057;28;20066;-74
2023/05/17 13:37:07;;;;;;;5.72;2.88;;;15.90;76.30;;;;;;6199861;28;20596;-75
2023/05/17 13:40:12;;;;;;;8.20;3.45;;;15.80;76.30;;;;;;6208091;28;20054;-75
2023/05/17 13:43:14;;;;;;;8.88;3.20;;;16.00;75.80;;;;;;6216089;28;20054;-76
2023/05/17 13:46:16;;;;;;;6.93;3.28;;;15.80;75.10;;;;;;6215885;28;20488;-74
2023/05/17 13:49:18;;;;;;;8.35;3.10;;;15.70;75.70;;;;;;6208740;28;20057;-74
2023/05/17 13:52:21;;;;;;;9.18;3.40;;;15.60;78.10;;;;;;6200318;28;20074;-74
2023/05/17 13:55:25;;;;;;;8.77;3.08;;;15.70;79.80;;;;;;6204561;28;20631;-74
2023/05/17 13:58:27;;;;;;;;;;;15.60;80.00;;;;;;6198069;28;20050;-74
2023/05/17 14:01:29;;;;;;;10.23;2.58;;;15.50;80.10;;;;;;6199414;28;19925;-75
2023/05/17 14:04:31;;;;;;;8.20;2.90;;;15.60;80.90;;;;;;6199125;28;20050;-74
2023/05/17 14:07:33;;;;;;;8.80;3.17;;;15.70;81.60;;;;;;6199507;28;20062;-75
2023/05/17 14:10:36;;;;;;;9.07;3.13;;;15.70;79.90;;;;;;6199299;28;20065;-75
2023/05/17 14:13:39;;;;;;;10.88;3.10;;;15.50;79.60;;;;;;6199670;28;20368;-76
2023/05/17 14:16:41;;;;;;;8.68;3.60;;;15.40;78.70;;;;;;6198957;28;20578;-76
2023/05/17 14:19:42;;;;;;;8.65;3.45;;;15.80;78.60;;;;;;6198959;28;20050;-75
2023/05/17 14:22:45;;;;;;;5.38;2.70;;;16.00;78.80;;;;;;6200165;28;20436;-75
2023/05/17 14:25:49;;;;;;;8.05;2.95;;;16.00;77.80;;;;;;6213731;28;20047;-77
2023/05/17 14:28:51;;;;;;;7.78;3.13;;;16.00;79.30;;;;;;6214764;28;20488;-75
2023/05/17 14:31:53;;;;;;;7.15;2.70;;;15.90;78.20;;;;;;6214816;28;20050;-73
2023/05/17 14:34:55;;;;;;;7.03;3.28;;;15.80;76.70;;;;;;6201050;28;20073;-75
2023/05/17 14:37:56;;;;;;;6.63;3.13;;;15.80;77.20;;;;;;6200207;28;20053;-76
2023/05/17 14:41:01;;;;;;;8.32;3.75;;;15.80;76.20;;;;;;6198692;28;20074;-74
2023/05/17 14:44:03;;;;;;;8.02;3.03;;;15.60;77.20;;;;;;6198465;28;20050;-74
2023/05/17 14:47:06;;;;;;;7.47;3.05;;;15.20;78.40;;;;;;6199476;28;20408;-74
2023/05/17 14:50:09;;;;;;;;;;;15.30;79.00;;;;;;6199016;28;20070;-74
2023/05/17 14:53:11;;;;;;;7.78;3.28;;;15.00;79.10;;;;;;6221508;28;19925;-74
2023/05/17 14:56:15;;;;;;;7.28;3.35;;;15.10;80.60;;;;;;6222588;28;20057;-73
2023/05/17 14:59:18;;;;;;;8.70;3.25;;;15.20;80.10;;;;;;6219670;28;20372;-76
2023/05/17 15:02:20;;;;;;;8.95;3.70;;;14.60;79.80;;;;;;6220882;28;20050;-76
2023/05/17 15:05:22;;;;;;;6.25;3.20;;;14.60;80.30;;;;;;6213645;28;20133;-74
2023/05/17 15:08:24;;;;;;;7.80;3.15;;;14.90;81.10;;;;;;6198075;28;20380;-75
2023/05/17 15:11:28;;;;;;;6.88;3.10;;;14.90;80.50;;;;;;6210748;28;20049;-75
2023/05/17 15:14:30;;;;;;;6.78;2.70;;;14.80;80.50;;;;;;6226672;28;20076;-73
2023/05/17 15:17:31;;;;;;;7.60;3.10;;;15.20;80.60;;;;;;6227931;28;20053;-75
2023/05/17 15:20:36;;;;;;;8.27;3.20;;;15.30;79.60;;;;;;6215054;28;20081;-73
2023/05/17 15:23:38;;;;;;;6.10;2.70;;;15.80;77.80;;;;;;6225397;28;20046;-73
2023/05/17 15:26:41;;;;;;;7.20;2.83;;;15.90;76.60;;;;;;6222127;28;20058;-77
2023/05/17 15:29:44;;;;;;;6.68;3.03;;;16.60;75.00;;;;;;6221386;28;20120;-75
2023/05/17 15:32:46;;;;;;;7.20;3.08;;;16.80;73.50;;;;;;6221233;28;20555;-75
2023/05/17 15:35:49;;;;;;;6.68;2.53;;;17.40;71.30;;;;;;6220885;28;20739;-75
2023/05/17 15:38:51;;;;;;;8.13;2.80;;;18.10;71.40;;;;;;6221186;28;20053;-74
2023/05/17 15:41:54;;;;;;;5.95;2.85;;;18.50;70.10;;;;;;6210017;28;20046;-74
2023/05/17 15:44:56;;;;;;;4.90;2.75;;;19.00;68.10;;;;;;6222085;28;20128;-73
2023/05/17 15:48:00;;;;;;;6.90;2.90;;;18.70;68.20;;;;;;6221939;28;20088;-75
2023/05/17 15:51:03;;;;;;;7.28;3.15;;;18.60;67.50;;;;;;6222540;28;20048;-76
2023/05/17 15:54:05;;;;;;;5.30;2.83;;;18.40;66.50;;;;;;6233065;28;20399;-72
2023/05/17 15:57:08;;;;;;;5.97;3.10;;;18.30;66.90;;;;;;6242407;28;20060;-74
2023/05/17 16:00:11;;;;;;;5.88;3.35;;;17.80;67.40;;;;;;6235905;28;20056;-76
2023/05/17 16:03:14;;;;;;;6.35;2.97;;;17.80;68.20;;;;;;6228101;28;20060;-77
2023/05/17 16:06:16;;;;;;;5.93;2.88;;;17.50;69.10;;;;;;6221900;28;20065;-77
2023/05/17 16:09:18;;;;;;;6.68;2.92;;;17.20;70.10;;;;;;6223026;28;20514;-75
2023/05/17 16:12:21;;;;;;;7.47;3.00;;;17.00;70.50;;;;;;6220917;28;20559;-76
2023/05/17 16:15:23;;;;;;;7.00;3.28;;;17.10;70.70;;;;;;6214051;28;20053;-75
2023/05/17 16:18:25;;;;;;;8.93;3.05;;;17.00;71.00;;;;;;6219739;28;20076;-75
2023/05/17 16:21:27;;;;;;;5.93;2.88;;;16.90;72.10;;;;;;6220231;28;20499;-76
2023/05/17 16:24:29;;;;;;;9.20;3.40;;;17.40;71.40;;;;;;6218985;28;20045;-78
2023/05/17 16:27:32;;;;;;;7.07;3.20;;;17.30;69.50;;;;;;6220758;28;20072;-77
2023/05/17 16:30:34;;;;;;;6.85;3.15;;;17.80;70.00;;;;;;6220411;28;20050;-77
2023/05/17 16:33:38;;;;;;;9.10;3.20;;;18.00;69.20;;;;;;6220971;28;20054;-78
2023/05/17 16:36:40;;;;;;;8.38;3.58;;;17.90;69.30;;;;;;6216373;28;20508;-77
2023/05/17 16:39:42;;;;;;;8.80;3.00;;;18.00;67.30;;;;;;6218889;28;20384;-76
2023/05/17 16:42:45;;;;;;;8.00;3.38;;;18.00;67.00;;;;;;6219252;28;20268;-75
2023/05/17 16:45:50;;;;;;;7.43;3.10;;;18.10;66.20;;;;;;6220191;28;20049;-77
2023/05/17 16:48:54;;;;;;;9.05;3.60;;;18.10;66.30;;;;;;6220280;28;20427;-76
2023/05/17 16:51:56;;;;;;;8.38;3.38;;;17.80;66.00;;;;;;6220603;28;20057;-76
2023/05/17 16:55:02;;;;;;;6.95;3.35;;;17.10;68.10;;;;;;6224026;28;20053;-73
2023/05/17 16:58:06;;;;;;;7.25;3.15;;;17.10;69.50;;;;;;6207492;28;20527;-75
2023/05/17 17:01:08;;;;;;;5.82;3.08;;;16.50;70.50;;;;;;6233815;28;20053;-75
2023/05/17 17:04:10;;;;;;;7.47;2.85;;;16.50;69.60;;;;;;6240798;28;20499;-75
2023/05/17 17:07:12;;;;;;;6.82;3.20;;;16.90;71.20;;;;;;6244211;28;20069;-75
2023/05/17 17:10:14;;;;;;;7.43;3.10;;;16.50;70.70;;;;;;6226439;28;20046;-75
2023/05/17 17:13:17;;;;;;;6.50;3.28;;;16.20;71.50;;;;;;6212195;28;20057;-75
2023/05/17 17:16:20;;;;;;;6.55;3.42;;;16.30;70.80;;;;;;6240584;28;20065;-75
2023/05/17 17:19:22;;;;;;;5.68;3.13;;;16.60;68.90;;;;;;6231980;28;20065;-75
2023/05/17 17:22:25;;;;;;;7.88;3.40;;;16.60;68.50;;;;;;6235939;28;20054;-75
2023/05/17 17:25:26;;;;;;;7.82;3.38;;;16.50;68.70;;;;;;6228573;28;20092;-73
2023/05/17 17:28:30;;;;;;;5.53;2.75;;;16.30;68.90;;;;;;6224241;28;20054;-75
2023/05/17 17:31:32;;;;;;;7.55;3.15;;;15.80;71.00;;;;;;6220036;28;20062;-75
2023/05/17 17:34:34;;;;;;;6.97;3.20;;;15.70;71.40;;;;;;6223621;28;20060;-76
2023/05/17 17:37:35;;;;;;;7.50;3.30;;;16.00;72.80;;;;;;6217504;28;20057;-75
2023/05/17 17:40:37;;;;;;;6.72;3.40;;;16.10;71.60;;;;;;6211211;28;20046;-75
2023/05/17 17:43:41;;;;;;;7.38;3.45;;;16.40;70.90;;;;;;6202014;28;20046;-75
2023/05/17 17:46:43;;;;;;;8.07;3.90;;;16.50;68.70;;;;;;6224347;28;20046;-74
2023/05/17 17:49:45;;;;;;;7.28;3.40;;;16.50;69.60;;;;;;6224191;28;20061;-75
2023/05/17 17:52:47;;;;;;;6.93;3.30;;;16.20;68.10;;;;;;6222587;28;20050;-74
2023/05/17 17:55:49;;;;;;;6.35;3.00;;;16.10;69.60;;;;;;6221771;28;20052;-75
2023/05/17 17:58:54;;;;;;;5.38;2.65;;;15.90;68.80;;;;;;6223564;28;20100;-75
2023/05/17 18:01:58;;;;;;;8.55;3.05;;;15.90;68.30;;;;;;6224239;28;20423;-75
2023/05/17 18:05:00;;;;;;;;;;;15.90;67.80;;;;;;6222638;28;20052;-75
2023/05/17 18:08:01;;;;;;;6.43;2.80;;;15.70;68.50;;;;;;6227349;28;19935;-75
2023/05/17 18:11:03;;;;;;;6.35;2.88;;;16.00;69.10;;;;;;6235566;28;20505;-75
2023/05/17 18:14:07;;;;;;;7.97;3.20;;;16.20;67.80;;;;;;6228947;28;20048;-74
2023/05/17 18:17:09;;;;;;;6.45;2.88;;;16.10;68.20;;;;;;6223046;28;20468;-76
2023/05/17 18:20:11;;;;;;;7.22;3.08;;;15.70;68.60;;;;;;6222548;28;20096;-75
2023/05/17 18:23:13;;;;;;;8.30;2.88;;;15.80;68.20;;;;;;6215034;28;20060;-76
2023/05/17 18:26:15;;;;;;;8.77;3.20;;;15.40;68.60;;;;;;6218072;28;20061;-77
2023/05/17 18:29:18;;;;;;;6.50;3.25;;;15.20;70.20;;;;;;6221752;28;20053;-74
2023/05/17 18:32:20;;;;;;;5.93;3.25;;;15.40;70.30;;;;;;6222747;28;20053;-77
2023/05/17 18:35:22;;;;;;;7.03;3.30;;;15.10;71.10;;;;;;6218466;28;20050;-74
2023/05/17 18:38:24;;;;;;;6.93;3.47;;;15.00;71.20;;;;;;6223035;28;20049;-75
2023/05/17 18:41:26;;;;;;;8.00;3.20;;;14.80;71.90;;;;;;6221732;28;20123;-76
2023/05/17 18:44:29;;;;;;;7.57;3.00;;;14.90;75.00;;;;;;6222160;28;20054;-75
2023/05/17 18:47:32;;;;;;;7.35;2.88;;;15.20;75.10;;;;;;6205327;28;20209;-74
2023/05/17 18:50:34;;;;;;;6.60;2.80;;;15.30;75.20;;;;;;6218036;28;20056;-73
2023/05/17 18:53:36;;;;;;;9.45;3.13;;;15.30;77.30;;;;;;6219625;28;20072;-78
2023/05/17 18:56:39;;;;;;;7.72;3.20;;;15.30;76.40;;;;;;6219657;28;20701;-70
2023/05/17 18:59:42;;;;;;;5.75;2.85;;;15.20;77.50;;;;;;6217098;28;20187;-75
2023/05/17 19:02:44;;;;;;;7.22;2.90;;;15.20;80.00;;;;;;6220159;28;20056;-74
2023/05/17 19:05:46;;;;;;;7.20;3.00;;;15.10;79.20;;;;;;6216343;28;20053;-71
2023/05/17 19:08:49;;;;;;;8.15;2.85;;;15.00;78.70;;;;;;6219538;28;20050;-73
2023/05/17 19:11:51;;;;;;;6.35;3.00;;;14.80;79.40;;;;;;6219251;28;20058;-72
2023/05/17 19:14:54;;;;;;;6.22;2.90;;;14.80;79.80;;;;;;6223135;28;20069;-72
2023/05/17 19:17:56;;;;;;;9.25;3.10;;;14.70;79.60;;;;;;6220899;28;20061;-76
2023/05/17 19:20:58;;;;;;;8.40;2.95;;;14.60;81.30;;;;;;6218132;28;20499;-77
2023/05/17 19:24:00;;;;;;;7.40;3.10;;;14.50;80.60;;;;;;6217101;28;20069;-75
2023/05/17 19:27:02;;;;;;;8.95;3.63;;;14.40;81.20;;;;;;6214201;28;20053;-76
2023/05/17 19:30:07;;;;;;;6.05;2.83;;;14.30;82.20;;;;;;6218762;28;20058;-74
2023/05/17 19:33:10;;;;;;;6.38;2.88;;;14.20;81.50;;;;;;6218535;28;20456;-76
2023/05/17 19:36:12;;;;;;;6.82;3.08;;;14.10;82.60;;;;;;6218492;28;20093;-74
2023/05/17 19:39:17;;;;;;;6.97;3.08;;;14.00;82.20;;;;;;6218588;28;20057;-75
2023/05/17 19:42:19;;;;;;;5.35;2.75;;;13.90;81.80;;;;;;6218287;28;20123;-75
2023/05/17 19:45:22;;;;;;;5.97;2.85;;;13.80;81.90;;;;;;6218364;28;20478;-76
2023/05/17 19:48:24;;;;;;;;;;;13.80;83.10;;;;;;6218668;28;20080;-74
2023/05/17 19:51:26;;;;;;;6.05;3.13;;;13.70;83.40;;;;;;6218443;28;19925;-75
2023/05/17 19:54:29;;;;;;;7.25;3.05;;;13.60;84.30;;;;;;6221563;28;20082;-74
2023/05/17 19:57:31;;;;;;;7.50;3.60;;;13.50;84.40;;;;;;6230142;28;20046;-75
2023/05/17 20:00:36;;;;;;;7.45;3.67;;;13.50;85.30;;;;;;6234517;28;20483;-77
2023/05/17 20:03:39;;;;;;;8.13;3.75;;;13.40;85.70;;;;;;6230358;28;20164;-76
2023/05/17 20:06:41;;;;;;;7.55;3.65;;;13.30;86.30;;;;;;6222103;28;20056;-74
2023/05/17 20:09:43;;;;;;;7.18;3.75;;;13.20;86.50;;;;;;6217037;28;20061;-75
2023/05/17 20:12:45;;;;;;;9.18;4.00;;;13.20;87.20;;;;;;6202925;28;20077;-75
2023/05/17 20:15:48;;;;;;;10.55;3.67;;;13.10;88.00;;;;;;6211291;28;20054;-73
2023/05/17 20:18:50;;;;;;;6.85;3.55;;;13.00;88.50;;;;;;6217913;28;20491;-73
2023/05/17 20:21:52;;;;;;;7.28;3.60;;;13.00;89.40;;;;;;6235387;28;20054;-72
2023/05/17 20:24:54;;;;;;;8.38;3.80;;;12.90;89.70;;;;;;6225898;28;20502;-75
2023/05/17 20:27:57;;;;;;;8.55;3.40;;;12.80;90.40;;;;;;6219690;28;20060;-72
2023/05/17 20:31:00;;;;;;;7.70;3.40;;;12.80;91.20;;;;;;6215031;28;20053;-74
2023/05/17 20:34:02;;;;;;;8.85;3.60;;;12.70;91.60;;;;;;6220607;28;20137;-74
2023/05/17 20:37:05;;;;;;;10.00;4.28;;;12.60;91.30;;;;;;6220938;28;20069;-74
2023/05/17 20:40:09;;;;;;;7.50;3.47;;;12.50;91.00;;;;;;6220716;28;20574;-73
2023/05/17 20:43:13;;;;;;;7.47;3.90;;;12.50;91.70;;;;;;6222506;28;20054;-71
2023/05/17 20:46:17;;;;;;;7.10;3.63;;;12.40;92.10;;;;;;6216657;28;20046;-73
2023/05/17 20:49:19;;;;;;;8.40;3.60;;;12.40;92.10;;;;;;6216000;28;20046;-72
2023/05/17 20:52:21;;;;;;;6.80;3.42;;;12.30;92.60;;;;;;6212249;28;20395;-72
2023/05/17 20:55:23;;;;;;;7.80;3.28;;;12.20;92.90;;;;;;6206449;28;20052;-72
2023/05/17 20:58:27;;;;;;;6.53;3.08;;;12.10;93.30;;;;;;6219143;28;20065;-73
2023/05/17 21:01:33;;;;;;;6.35;3.35;;;11.90;93.60;;;;;;6209804;28;20407;-72
2023/05/17 21:04:36;;;;;;;6.60;3.25;;;11.90;93.80;;;;;;6214637;28;20649;-72
2023/05/17 21:07:38;;;;;;;7.53;3.33;;;11.80;93.80;;;;;;6198686;28;20073;-72
2023/05/17 21:10:45;;;;;;;7.38;3.55;;;11.70;94.10;;;;;;6201014;28;20042;-72
2023/05/17 21:13:46;;;;;;;8.40;3.10;;;11.50;94.50;;;;;;6198807;28;20057;-72
2023/05/17 21:16:50;;;;;;;7.35;3.33;;;11.50;94.70;;;;;;6200299;28;20046;-73
2023/05/17 21:19:51;;;;;;;9.75;3.88;;;11.50;94.80;;;;;;6206472;28;20123;-73
2023/05/17 21:22:53;;;;;;;8.85;3.80;;;11.50;95.00;;;;;;6221166;28;20041;-73
2023/05/17 21:25:55;;;;;;;8.25;3.53;;;11.40;94.80;;;;;;6214030;28;20046;-72
2023/05/17 21:28:57;;;;;;;7.95;3.70;;;11.40;94.80;;;;;;6218872;28;20394;-71
2023/05/17 21:32:00;;;;;;;8.43;4.00;;;11.40;95.20;;;;;;6221783;28;20050;-74
2023/05/17 21:35:02;;;;;;;8.00;3.53;;;11.40;95.20;;;;;;6221401;28;20042;-73
2023/05/17 21:38:04;;;;;;;7.53;3.50;;;11.40;94.90;;;;;;6222879;28;20049;-71
2023/05/17 21:41:06;;;;;;;7.85;3.78;;;11.40;95.20;;;;;;6224393;28;20128;-72
2023/05/17 21:44:08;;;;;;;8.48;3.78;;;11.40;95.10;;;;;;6227223;28;20057;-73
2023/05/17 21:47:11;;;;;;;9.23;3.70;;;11.40;95.30;;;;;;6208747;28;20400;-71
2023/05/17 21:50:13;;;;;;;9.88;4.03;;;11.40;95.50;;;;;;6214144;28;20053;-73
2023/05/17 21:53:15;;;;;;;9.20;4.43;;;11.20;95.30;;;;;;6217955;28;20042;-71
2023/05/17 21:56:17;;;;;;;7.90;4.03;;;11.20;95.30;;;;;;6221552;28;20412;-72
2023/05/17 21:59:19;;;;;;;7.63;3.80;;;11.10;95.50;;;;;;6225235;28;20056;-73
